Portada
METAR-TAF:

METAR-TAF

Aeroports :

Tarakan, Indonèsia

latitud: 03-19-36N, longitud: 117-33-56E, altitud: 6 m

Observació

L'informe es va fer fa 4 hores i 53 minuts, a les 05:30 UTC
Vent 12 kt del Nord/Nord-Est
Temperatura 32°C
Humitat 56%
Pressió 1012 hPa
Visibilitat 10 km o més
Núvols disperses a una alçada de 1500 ft

METAR: WAQQ 210530Z 02012KT 9999 SCT015 32/22 Q1012

Hora: 17:23 (10:23 UTC)

Pronòstic

L'informe es va fer fa 11 hores i 23 minuts, a les 23:00 UTC
Pronòstic vàlid del 21 a les 00 UTC al 21 a les 12 UTC
Vent 5 kt del Nord
Visibilitat: 8000 m
Escasses núvols a una alçada de 1500 ft
Evolucionant progressivament
l' 21 a les 04 UTC al 21 a les 06 UTC
Vent 8 kt del Est/Nord-Est
Visibilitat 10 km o més

TAF: WAQQ 202300Z 2100/2112 01005KT 8000 FEW015 BECMG 2104/2106 07008KT 9999

Observacions i pronòstics meteorològics de més de 4000 aeroports (METAR i TAF).

Les estacions disponibles són els punts grocs i vermells al mapa.

Posi el ratolí al punt desitjat per veure el nom de l'estació.

Feu clic per veure les observacions i els pronòstics meteorològics.

Per canviar el mapa: feu clic els botons verds amb una creu de color negre per apropar; al botó verd amb un guió per allunyar la imatge; o en les fletxes verdes per a mapes adjacents.


METAR-TAF: